Time;durP1;ratioP1;P1;durP2;ratioP2;P2;SDS_P1;SDS_P2;PMS_P1;PMS_P2;Temp;Humidity;BMP_temperature;BMP_pressure;BME280_temperature;BME280_humidity;BME280_pressure;Samples;Min_cycle;Max_cycle;Signal;HPM_P1;HPM_P2
2021/05/12 00:01:43;;;;;;;0.82;0.77;;;12.50;80.90;;;;;;5075506;28;20036;-76
2021/05/12 00:04:09;;;;;;;1.10;1.00;;;12.50;81.00;;;;;;5094018;28;20043;-76
2021/05/12 00:06:34;;;;;;;1.55;1.20;;;12.40;81.00;;;;;;5093864;28;20046;-76
2021/05/12 00:09:00;;;;;;;1.88;1.42;;;12.40;81.10;;;;;;5094439;28;20039;-76
2021/05/12 00:11:26;;;;;;;2.00;1.25;;;12.40;81.20;;;;;;5093978;28;20457;-76
2021/05/12 00:13:52;;;;;;;2.40;1.50;;;12.30;81.20;;;;;;5073290;28;20438;-76
2021/05/12 00:16:18;;;;;;;1.63;1.23;;;12.30;81.30;;;;;;5094060;28;20438;-76
2021/05/12 00:18:46;;;;;;;1.33;1.00;;;12.20;81.30;;;;;;5074969;28;20039;-76
2021/05/12 00:21:21;;;;;;;1.80;1.23;;;12.20;81.30;;;;;;5093525;28;20055;-76
2021/05/12 00:23:59;;;;;;;2.00;1.00;;;12.20;81.30;;;;;;5060468;28;20479;-76
2021/05/12 00:26:27;;;;;;;1.63;1.13;;;12.10;81.40;;;;;;5092653;28;20048;-76
2021/05/12 00:28:53;;;;;;;1.55;1.25;;;12.20;81.50;;;;;;5093165;28;20032;-75
2021/05/12 00:31:18;;;;;;;1.83;1.30;;;12.10;81.40;;;;;;5092841;28;20036;-75
2021/05/12 00:33:44;;;;;;;1.52;1.15;;;12.10;81.50;;;;;;5093129;28;20043;-76
2021/05/12 00:36:10;;;;;;;1.48;1.20;;;12.10;81.50;;;;;;5093131;28;20047;-76
2021/05/12 00:38:36;;;;;;;0.90;0.90;;;12.00;81.50;;;;;;5075068;28;20043;-75
2021/05/12 00:41:03;;;;;;;3.00;1.58;;;12.00;81.50;;;;;;5093419;28;20089;-75
2021/05/12 00:43:29;;;;;;;1.30;1.20;;;12.00;81.50;;;;;;5092993;28;20032;-75
2021/05/12 00:45:55;;;;;;;1.38;1.00;;;12.00;81.50;;;;;;5093226;28;20036;-75
2021/05/12 00:48:21;;;;;;;2.40;1.70;;;12.00;81.50;;;;;;5093616;28;20036;-76
2021/05/12 00:50:46;;;;;;;1.63;1.20;;;11.90;81.60;;;;;;5074546;28;20097;-75
2021/05/12 00:53:12;;;;;;;1.13;1.02;;;11.90;81.60;;;;;;5074482;28;20059;-76
2021/05/12 00:55:38;;;;;;;0.95;0.90;;;11.90;81.60;;;;;;5055385;28;20091;-76
2021/05/12 00:58:04;;;;;;;1.00;0.90;;;11.90;81.60;;;;;;5072445;28;20509;-75
2021/05/12 01:00:30;;;;;;;1.63;1.20;;;11.70;81.60;;;;;;5074041;28;20052;-76
2021/05/12 01:02:56;;;;;;;1.55;1.05;;;11.80;81.70;;;;;;5074777;28;20040;-75
2021/05/12 01:05:29;;;;;;;1.85;1.15;;;11.80;81.70;;;;;;5072019;28;20048;-75
2021/05/12 01:07:56;;;;;;;2.08;1.30;;;11.70;81.80;;;;;;5090646;28;20399;-76
2021/05/12 01:10:22;;;;;;;2.08;1.40;;;11.70;81.90;;;;;;5093249;28;20040;-75
2021/05/12 01:12:50;;;;;;;1.50;1.00;;;11.70;81.90;;;;;;5092905;28;20040;-76
2021/05/12 01:15:15;;;;;;;0.70;0.65;;;11.60;82.00;;;;;;5093142;28;20040;-76
2021/05/12 01:17:41;;;;;;;1.30;0.90;;;11.60;82.00;;;;;;5092893;28;20042;-75
2021/05/12 01:20:09;;;;;;;0.80;0.80;;;11.50;81.90;;;;;;5075146;28;20040;-75
2021/05/12 01:22:35;;;;;;;1.70;1.35;;;11.50;81.90;;;;;;5092980;28;20042;-75
2021/05/12 01:25:01;;;;;;;1.30;0.98;;;11.50;82.00;;;;;;5093206;28;20044;-75
2021/05/12 01:27:27;;;;;;;1.50;1.10;;;11.50;81.90;;;;;;5092510;28;20040;-75
2021/05/12 01:29:53;;;;;;;1.13;0.98;;;11.40;81.90;;;;;;5074276;28;20063;-75
2021/05/12 01:32:19;;;;;;;1.10;0.82;;;11.50;82.00;;;;;;5074814;28;20051;-75
2021/05/12 01:34:44;;;;;;;2.47;1.30;;;11.40;81.90;;;;;;5093005;28;20415;-75
2021/05/12 01:37:10;;;;;;;1.88;1.20;;;11.50;81.90;;;;;;5070849;28;20037;-75
2021/05/12 01:39:36;;;;;;;0.63;0.63;;;11.40;82.50;;;;;;5092736;28;20036;-75
2021/05/12 01:42:01;;;;;;;1.90;1.30;;;11.30;81.80;;;;;;5092266;28;20040;-75
2021/05/12 01:44:27;;;;;;;2.08;1.20;;;11.30;82.00;;;;;;5071358;28;20522;-75
2021/05/12 01:46:53;;;;;;;1.30;0.95;;;11.30;82.00;;;;;;5074050;28;20048;-75
2021/05/12 01:49:19;;;;;;;2.53;1.30;;;11.30;82.00;;;;;;5092430;28;20055;-75
2021/05/12 01:51:45;;;;;;;1.90;1.27;;;11.30;82.00;;;;;;5071761;28;20049;-76
2021/05/12 01:54:12;;;;;;;1.77;1.27;;;11.20;82.00;;;;;;5074022;28;20032;-75
2021/05/12 01:56:39;;;;;;;1.85;0.90;;;11.20;82.00;;;;;;5092510;28;20032;-75
2021/05/12 01:59:07;;;;;;;1.48;1.00;;;11.30;82.10;;;;;;5091420;28;20046;-75
2021/05/12 02:01:33;;;;;;;1.25;0.90;;;11.10;82.60;;;;;;5092303;28;20036;-76
2021/05/12 02:04:09;;;;;;;1.20;0.88;;;11.10;82.10;;;;;;5055971;28;20044;-76
2021/05/12 02:06:36;;;;;;;1.10;0.98;;;11.10;82.20;;;;;;5092808;28;20427;-76
2021/05/12 02:09:06;;;;;;;1.20;0.85;;;11.10;82.20;;;;;;5092817;28;20044;-76
2021/05/12 02:11:31;;;;;;;1.00;0.77;;;11.00;82.20;;;;;;5073069;28;20501;-75
2021/05/12 02:13:57;;;;;;;1.58;1.08;;;11.00;82.20;;;;;;5072106;28;20032;-75
2021/05/12 02:16:23;;;;;;;1.30;1.00;;;10.90;82.30;;;;;;5091823;28;20043;-75
2021/05/12 02:19:16;;;;;;;1.55;1.05;;;10.90;82.30;;;;;;5077250;28;20082;-75
2021/05/12 02:21:42;;;;;;;2.08;1.30;;;10.90;83.00;;;;;;5095588;28;20040;-76
2021/05/12 02:24:08;;;;;;;1.60;1.02;;;10.90;82.30;;;;;;5095680;28;20059;-75
2021/05/12 02:26:34;;;;;;;1.10;1.00;;;10.90;82.30;;;;;;5096539;28;20089;-76
2021/05/12 02:29:00;;;;;;;1.00;0.90;;;10.90;82.30;;;;;;5078041;28;20032;-75
2021/05/12 02:31:26;;;;;;;1.25;0.95;;;10.90;82.30;;;;;;5078130;28;20496;-76
2021/05/12 02:33:52;;;;;;;2.35;1.23;;;10.90;82.20;;;;;;5077544;28;20035;-75
2021/05/12 02:36:17;;;;;;;4.10;1.38;;;10.90;82.20;;;;;;5096265;28;20128;-75
2021/05/12 02:38:43;;;;;;;2.03;1.40;;;10.90;82.10;;;;;;5096190;28;20127;-75
2021/05/12 02:41:09;;;;;;;1.05;0.90;;;11.00;82.10;;;;;;5077871;28;20146;-75
2021/05/12 02:43:35;;;;;;;1.90;1.00;;;10.80;81.90;;;;;;5096090;28;20043;-76
2021/05/12 02:46:00;;;;;;;2.15;1.27;;;11.00;82.00;;;;;;5097120;28;20428;-75
2021/05/12 02:48:26;;;;;;;2.22;1.42;;;10.90;81.90;;;;;;5078847;28;20444;-75
2021/05/12 02:50:52;;;;;;;1.35;0.95;;;11.00;81.90;;;;;;5075139;28;20109;-75
2021/05/12 02:53:20;;;;;;;1.85;1.10;;;11.00;81.90;;;;;;5077592;28;20044;-75
2021/05/12 02:55:46;;;;;;;1.90;1.17;;;11.00;81.90;;;;;;5073889;28;20072;-75
2021/05/12 02:58:11;;;;;;;1.88;1.30;;;11.00;81.80;;;;;;5078378;28;20375;-75
2021/05/12 03:00:40;;;;;;;1.58;1.10;;;11.00;81.80;;;;;;5077809;28;20044;-76
2021/05/12 03:03:07;;;;;;;1.40;1.00;;;10.90;81.70;;;;;;5095778;28;20040;-76
2021/05/12 03:05:33;;;;;;;1.88;1.15;;;10.90;81.80;;;;;;5095791;28;20185;-76
2021/05/12 03:07:59;;;;;;;1.27;1.00;;;11.00;81.90;;;;;;5077683;28;20036;-76
2021/05/12 03:10:25;;;;;;;1.65;1.10;;;10.90;81.90;;;;;;5076878;28;20044;-76
2021/05/12 03:12:51;;;;;;;1.30;1.10;;;11.00;81.90;;;;;;5095664;28;20040;-75
2021/05/12 03:15:21;;;;;;;1.20;1.00;;;10.90;82.50;;;;;;5094862;28;20506;-75
2021/05/12 03:17:47;;;;;;;1.42;1.15;;;10.90;81.90;;;;;;5093742;28;20106;-75
2021/05/12 03:20:15;;;;;;;3.20;1.67;;;10.90;81.90;;;;;;5059598;28;20047;-75
2021/05/12 03:22:41;;;;;;;2.20;1.20;;;10.90;81.90;;;;;;5094692;28;20044;-75
2021/05/12 03:25:07;;;;;;;1.65;1.10;;;10.90;82.00;;;;;;5094402;28;20050;-75
2021/05/12 03:27:33;;;;;;;2.20;1.20;;;10.80;82.00;;;;;;5094355;28;20048;-75
2021/05/12 03:29:59;;;;;;;2.30;1.55;;;10.80;82.00;;;;;;5074603;28;20942;-75
2021/05/12 03:32:25;;;;;;;2.15;1.30;;;10.80;82.00;;;;;;5094296;28;20084;-75
2021/05/12 03:34:50;;;;;;;2.20;1.23;;;10.80;82.10;;;;;;5076500;28;20032;-75
2021/05/12 03:37:17;;;;;;;3.05;1.40;;;10.80;82.20;;;;;;5094055;28;20558;-76
2021/05/12 03:39:42;;;;;;;2.90;1.30;;;10.70;82.20;;;;;;5060031;28;20054;-76
2021/05/12 03:42:08;;;;;;;2.58;1.20;;;10.70;82.20;;;;;;5095315;28;20039;-75
2021/05/12 03:44:34;;;;;;;3.25;1.60;;;10.60;82.20;;;;;;5076533;28;20041;-75
2021/05/12 03:47:00;;;;;;;1.67;1.10;;;10.70;82.30;;;;;;5094970;28;20043;-75
2021/05/12 03:49:25;;;;;;;1.90;1.20;;;10.60;82.30;;;;;;5094544;28;20093;-75
2021/05/12 03:51:51;;;;;;;2.13;1.30;;;10.60;82.30;;;;;;5094444;28;20032;-75
2021/05/12 03:54:17;;;;;;;2.28;1.40;;;10.60;82.40;;;;;;5076785;28;20040;-76
2021/05/12 03:56:43;;;;;;;3.85;1.77;;;10.50;82.50;;;;;;5094393;28;20044;-75
2021/05/12 03:59:08;;;;;;;3.85;1.70;;;10.40;82.70;;;;;;5076990;28;20397;-75
2021/05/12 04:01:34;;;;;;;2.28;1.50;;;10.40;82.80;;;;;;5075868;28;20055;-75
2021/05/12 04:04:05;;;;;;;2.33;1.35;;;10.40;82.80;;;;;;5095408;28;20057;-75
2021/05/12 04:06:31;;;;;;;1.63;1.13;;;10.40;82.80;;;;;;5094457;28;20127;-75
2021/05/12 04:08:57;;;;;;;2.97;1.60;;;10.30;82.70;;;;;;5094478;28;20060;-75
2021/05/12 04:11:22;;;;;;;2.65;1.23;;;10.40;82.70;;;;;;5094695;28;20043;-75
2021/05/12 04:13:48;;;;;;;2.33;1.38;;;10.40;82.60;;;;;;5094175;28;20095;-75
2021/05/12 04:16:14;;;;;;;1.65;1.02;;;10.40;82.60;;;;;;5093770;28;20104;-75
2021/05/12 04:18:40;;;;;;;3.80;1.48;;;10.40;82.60;;;;;;5094013;28;20047;-75
2021/05/12 04:21:05;;;;;;;2.58;1.65;;;10.50;82.60;;;;;;5075745;28;20040;-75
2021/05/12 04:23:31;;;;;;;2.15;1.35;;;10.50;82.50;;;;;;5073475;28;20044;-75
2021/05/12 04:25:57;;;;;;;1.65;1.23;;;10.50;82.50;;;;;;5093902;28;20031;-75
2021/05/12 04:28:22;;;;;;;2.10;1.40;;;10.50;82.40;;;;;;5093508;28;20044;-75
2021/05/12 04:30:48;;;;;;;1.20;0.93;;;10.50;82.30;;;;;;5093907;28;20043;-76
2021/05/12 04:33:14;;;;;;;2.30;1.08;;;10.50;82.30;;;;;;5072296;28;20052;-75
2021/05/12 04:35:40;;;;;;;1.67;1.00;;;10.60;82.40;;;;;;5094016;28;20040;-76
2021/05/12 04:38:05;;;;;;;1.75;0.95;;;10.50;82.30;;;;;;5093643;28;20070;-76
2021/05/12 04:40:31;;;;;;;1.15;0.98;;;10.50;82.30;;;;;;5097301;28;20043;-75
2021/05/12 04:42:57;;;;;;;1.55;0.90;;;10.50;82.30;;;;;;5075778;28;20625;-76
2021/05/12 04:45:25;;;;;;;2.03;1.23;;;10.40;82.30;;;;;;5079014;28;20047;-76
2021/05/12 04:47:55;;;;;;;2.08;1.25;;;10.50;82.40;;;;;;5097977;28;20036;-76
2021/05/12 04:50:23;;;;;;;0.98;0.88;;;10.50;82.40;;;;;;5061781;28;20043;-75
2021/05/12 04:52:49;;;;;;;1.83;1.27;;;10.50;82.50;;;;;;5079628;28;20448;-76
2021/05/12 04:55:15;;;;;;;0.85;0.70;;;10.50;82.50;;;;;;5098025;28;20039;-75
2021/05/12 04:57:41;;;;;;;1.90;1.20;;;10.50;82.40;;;;;;5096555;28;20040;-75
2021/05/12 05:00:07;;;;;;;1.63;1.05;;;10.50;82.40;;;;;;5078333;28;20044;-76
2021/05/12 05:02:33;;;;;;;1.20;0.88;;;10.50;82.30;;;;;;5096394;28;20065;-76
2021/05/12 05:05:00;;;;;;;1.20;0.90;;;10.50;82.20;;;;;;5096361;28;20043;-75
2021/05/12 05:07:25;;;;;;;1.35;1.00;;;10.60;82.20;;;;;;5096157;28;20036;-76
2021/05/12 05:09:51;;;;;;;1.27;1.10;;;10.60;82.70;;;;;;5095057;28;20481;-76
2021/05/12 05:12:18;;;;;;;1.70;1.05;;;10.60;82.10;;;;;;5095176;28;20025;-75
2021/05/12 05:14:43;;;;;;;1.42;1.00;;;10.70;82.10;;;;;;5075444;28;20040;-76
2021/05/12 05:17:10;;;;;;;1.30;0.90;;;10.70;82.00;;;;;;5075488;28;20139;-76
2021/05/12 05:19:36;;;;;;;1.50;1.10;;;10.70;82.00;;;;;;5094148;28;20051;-76
2021/05/12 05:22:03;;;;;;;1.63;1.13;;;10.80;81.90;;;;;;5072838;28;20044;-75
2021/05/12 05:24:29;;;;;;;2.97;1.40;;;10.90;81.90;;;;;;5094334;28;20039;-75
2021/05/12 05:26:55;;;;;;;2.05;1.33;;;10.90;81.80;;;;;;5074648;28;20041;-76
2021/05/12 05:29:20;;;;;;;1.42;1.10;;;10.90;81.70;;;;;;5095314;28;20046;-75
2021/05/12 05:31:46;;;;;;;3.03;1.45;;;11.00;81.60;;;;;;5075900;28;20071;-76
2021/05/12 05:34:12;;;;;;;2.63;1.58;;;11.10;81.60;;;;;;5076117;28;20052;-75
2021/05/12 05:36:39;;;;;;;3.45;1.83;;;11.00;81.40;;;;;;5074947;28;20048;-75
2021/05/12 05:39:05;;;;;;;2.17;1.50;;;11.10;81.40;;;;;;5060336;28;20036;-76
2021/05/12 05:41:31;;;;;;;2.88;1.80;;;11.10;81.30;;;;;;5076795;28;20093;-76
2021/05/12 05:43:57;;;;;;;3.50;1.77;;;11.20;81.20;;;;;;5043326;28;20028;-76
2021/05/12 05:46:23;;;;;;;3.10;1.80;;;11.20;81.20;;;;;;5059827;28;20135;-75
2021/05/12 05:48:48;;;;;;;3.33;2.00;;;11.20;81.20;;;;;;5059572;28;20052;-76
2021/05/12 05:51:14;;;;;;;3.60;1.95;;;11.30;81.20;;;;;;5095070;28;20032;-75
2021/05/12 05:53:39;;;;;;;3.92;1.85;;;11.30;81.20;;;;;;5076823;28;20391;-75
2021/05/12 05:56:05;;;;;;;3.22;1.88;;;11.30;81.10;;;;;;5090856;28;20076;-76
2021/05/12 05:58:31;;;;;;;2.97;1.90;;;11.40;81.10;;;;;;5109929;28;20036;-77
2021/05/12 06:00:56;;;;;;;3.63;2.03;;;11.50;81.10;;;;;;5089865;28;20048;-76
2021/05/12 06:03:22;;;;;;;2.75;1.70;;;11.50;81.00;;;;;;5112001;28;20047;-76
2021/05/12 06:05:49;;;;;;;3.63;1.80;;;11.50;81.00;;;;;;5096737;28;20532;-74
2021/05/12 06:08:14;;;;;;;2.33;1.60;;;11.60;80.90;;;;;;5077446;28;20047;-75
2021/05/12 06:10:40;;;;;;;4.53;2.15;;;11.60;80.80;;;;;;5095846;28;20420;-76
2021/05/12 06:13:06;;;;;;;3.75;2.03;;;11.70;80.90;;;;;;5068410;28;20533;-78
2021/05/12 06:15:31;;;;;;;3.20;2.00;;;11.70;80.70;;;;;;5086805;28;20393;-76
2021/05/12 06:17:57;;;;;;;5.05;1.92;;;11.80;81.30;;;;;;5090074;28;20036;-77
2021/05/12 06:20:23;;;;;;;4.32;2.28;;;11.90;80.60;;;;;;5104877;28;20131;-77
2021/05/12 06:22:49;;;;;;;4.25;2.22;;;12.00;80.50;;;;;;5085579;28;20417;-77
2021/05/12 06:25:14;;;;;;;3.22;1.92;;;12.00;80.40;;;;;;5083903;28;20123;-77
2021/05/12 06:27:42;;;;;;;4.10;2.10;;;12.10;80.40;;;;;;5087475;28;20037;-76
2021/05/12 06:30:08;;;;;;;3.97;2.03;;;12.10;80.40;;;;;;5069571;28;20039;-77
2021/05/12 06:32:34;;;;;;;2.85;1.98;;;12.20;80.90;;;;;;5105212;28;20447;-77
2021/05/12 06:35:00;;;;;;;3.13;1.80;;;12.30;80.20;;;;;;5104796;28;20123;-77
2021/05/12 06:37:26;;;;;;;6.18;2.45;;;12.40;80.10;;;;;;5097414;28;20415;-77
2021/05/12 06:39:51;;;;;;;4.28;2.35;;;12.40;80.00;;;;;;5097860;28;20036;-78
2021/05/12 06:42:18;;;;;;;4.05;2.50;;;12.50;79.90;;;;;;5078275;28;20510;-78
2021/05/12 06:44:44;;;;;;;4.85;2.33;;;12.70;79.70;;;;;;5061076;28;20128;-79
2021/05/12 06:47:10;;;;;;;4.00;2.00;;;12.80;79.50;;;;;;5078299;28;20067;-81
2021/05/12 06:49:35;;;;;;;4.03;1.80;;;12.90;79.40;;;;;;5080991;28;20059;-78
2021/05/12 06:52:01;;;;;;;3.05;1.83;;;12.90;79.20;;;;;;5045124;28;20040;-77
2021/05/12 06:54:27;;;;;;;2.97;1.95;;;13.00;79.10;;;;;;5095357;28;20408;-80
2021/05/12 06:56:52;;;;;;;3.10;1.70;;;13.10;79.00;;;;;;5078683;28;20058;-82
2021/05/12 06:59:18;;;;;;;2.67;1.58;;;13.20;78.90;;;;;;5076474;28;20067;-79
2021/05/12 07:01:44;;;;;;;1.40;1.15;;;13.40;78.80;;;;;;5077721;28;20525;-80
2021/05/12 07:04:10;;;;;;;2.55;1.35;;;13.40;78.60;;;;;;5056849;28;20040;-78
2021/05/12 07:06:35;;;;;;;1.65;1.15;;;13.50;78.40;;;;;;5077851;28;20056;-79
2021/05/12 07:09:01;;;;;;;2.25;1.30;;;13.60;78.30;;;;;;5105205;28;20028;-77
2021/05/12 07:11:28;;;;;;;2.45;1.20;;;13.80;78.20;;;;;;5067654;28;20063;-79
2021/05/12 07:13:54;;;;;;;1.45;1.00;;;13.90;78.00;;;;;;5081459;28;20063;-78
2021/05/12 07:16:20;;;;;;;2.10;1.00;;;14.00;77.90;;;;;;5075562;28;20459;-78
2021/05/12 07:18:46;;;;;;;2.53;1.20;;;14.00;77.80;;;;;;5095266;28;20109;-82
2021/05/12 07:21:12;;;;;;;2.20;1.10;;;14.00;77.70;;;;;;5078238;28;20481;-77
2021/05/12 07:23:39;;;;;;;2.58;1.05;;;14.20;77.40;;;;;;5081410;28;20064;-79
2021/05/12 07:26:05;;;;;;;1.35;0.98;;;14.30;77.30;;;;;;5079292;28;20048;-81
2021/05/12 07:28:31;;;;;;;1.88;1.10;;;14.40;77.10;;;;;;5081501;28;20059;-79
2021/05/12 07:30:57;;;;;;;2.63;1.10;;;14.50;76.80;;;;;;5079709;28;20405;-80
2021/05/12 07:33:23;;;;;;;2.10;1.10;;;14.60;76.70;;;;;;5100484;28;20040;-79
2021/05/12 07:35:49;;;;;;;1.60;0.90;;;14.70;76.60;;;;;;5074759;28;20049;-78
2021/05/12 07:38:15;;;;;;;1.60;0.90;;;14.80;76.50;;;;;;5041626;28;20163;-76
2021/05/12 07:40:41;;;;;;;1.23;0.90;;;14.90;76.30;;;;;;5083979;28;20048;-77
2021/05/12 07:43:11;;;;;;;1.50;1.00;;;15.00;76.30;;;;;;5101658;28;20139;-78
2021/05/12 07:45:37;;;;;;;2.53;1.05;;;15.00;76.10;;;;;;5104216;28;20603;-78
2021/05/12 07:48:05;;;;;;;2.20;1.15;;;15.10;76.20;;;;;;5078390;28;20036;-78
2021/05/12 07:50:31;;;;;;;2.90;1.15;;;15.20;76.00;;;;;;5094561;28;20040;-81
2021/05/12 07:52:59;;;;;;;2.42;1.15;;;15.30;76.00;;;;;;5075406;28;20134;-81
2021/05/12 07:55:25;;;;;;;3.55;1.48;;;15.30;75.70;;;;;;5043465;28;20385;-79
2021/05/12 07:57:51;;;;;;;2.55;1.30;;;15.40;75.60;;;;;;5076480;28;20065;-77
2021/05/12 08:00:17;;;;;;;2.10;1.13;;;15.40;75.40;;;;;;5094840;28;20039;-77
2021/05/12 08:02:43;;;;;;;1.35;0.80;;;15.60;75.10;;;;;;5075894;28;20169;-76
2021/05/12 08:05:10;;;;;;;1.88;0.90;;;15.70;74.90;;;;;;5093669;28;20127;-77
2021/05/12 08:07:36;;;;;;;1.70;0.77;;;15.80;74.80;;;;;;5074582;28;20037;-76
2021/05/12 08:10:03;;;;;;;1.65;1.00;;;16.00;74.60;;;;;;5076170;28;20043;-75
2021/05/12 08:12:29;;;;;;;2.67;1.13;;;16.10;74.40;;;;;;5094973;28;20056;-78
2021/05/12 08:14:55;;;;;;;1.20;0.85;;;16.10;74.20;;;;;;5093482;28;20043;-76
2021/05/12 08:17:20;;;;;;;2.13;1.10;;;16.20;74.20;;;;;;5040238;28;20047;-75
2021/05/12 08:19:46;;;;;;;2.25;0.90;;;16.20;74.30;;;;;;5075571;28;20074;-77
2021/05/12 08:22:12;;;;;;;2.88;1.10;;;16.40;74.10;;;;;;5074857;28;20076;-77
2021/05/12 08:24:37;;;;;;;1.75;1.05;;;16.40;73.90;;;;;;5101501;28;20089;-76
2021/05/12 08:27:05;;;;;;;1.88;1.05;;;16.50;73.70;;;;;;5043498;28;20111;-78
2021/05/12 08:29:31;;;;;;;0.88;0.70;;;16.50;73.70;;;;;;5067972;28;20112;-78
2021/05/12 08:31:58;;;;;;;1.75;1.10;;;16.70;73.70;;;;;;5097657;28;20082;-77
2021/05/12 08:34:26;;;;;;;2.72;1.00;;;16.80;73.60;;;;;;5093311;28;20040;-77
2021/05/12 08:36:53;;;;;;;0.93;0.82;;;16.90;73.40;;;;;;5100600;28;20032;-77
2021/05/12 08:39:19;;;;;;;1.10;0.75;;;17.10;73.10;;;;;;5097947;28;20058;-79
2021/05/12 08:41:47;;;;;;;0.60;0.60;;;17.20;72.70;;;;;;5031166;28;20582;-76
2021/05/12 08:44:13;;;;;;;1.58;0.73;;;17.30;72.70;;;;;;5034472;28;20144;-77
2021/05/12 08:46:40;;;;;;;1.08;0.70;;;17.40;72.40;;;;;;5045693;28;20041;-78
2021/05/12 08:49:07;;;;;;;1.23;0.70;;;17.40;72.20;;;;;;5036168;28;20048;-78
2021/05/12 08:51:33;;;;;;;1.63;1.00;;;17.40;72.20;;;;;;5033977;28;20049;-79
2021/05/12 08:53:59;;;;;;;1.40;0.70;;;17.40;72.20;;;;;;5030513;28;20038;-76
2021/05/12 08:56:25;;;;;;;1.77;0.77;;;17.40;72.30;;;;;;5030484;28;20053;-77
2021/05/12 08:58:51;;;;;;;0.98;0.80;;;17.60;72.30;;;;;;5031130;28;20046;-79
2021/05/12 09:01:17;;;;;;;1.63;0.80;;;17.70;72.10;;;;;;5034030;28;20048;-78
2021/05/12 09:03:44;;;;;;;0.70;0.70;;;17.70;71.80;;;;;;5038973;28;20045;-78
2021/05/12 09:06:11;;;;;;;1.05;0.70;;;17.60;72.10;;;;;;5032685;28;20081;-78
2021/05/12 09:08:37;;;;;;;1.38;0.80;;;17.70;72.20;;;;;;5032839;28;20045;-77
2021/05/12 09:11:03;;;;;;;1.13;0.80;;;17.70;72.10;;;;;;5033888;28;20045;-76
2021/05/12 09:13:38;;;;;;;1.13;0.60;;;17.80;71.90;;;;;;5069104;28;20563;-77
2021/05/12 09:16:21;;;;;;;0.73;0.73;;;17.80;71.70;;;;;;5079712;28;20049;-78
2021/05/12 09:18:50;;;;;;;1.55;0.60;;;17.90;71.60;;;;;;5097981;28;20052;-78
2021/05/12 09:21:16;;;;;;;1.70;0.57;;;18.00;71.50;;;;;;5059667;28;20128;-77
2021/05/12 09:23:43;;;;;;;1.35;0.70;;;18.00;71.30;;;;;;5061921;28;20036;-78
2021/05/12 09:26:14;;;;;;;2.25;0.90;;;18.10;71.20;;;;;;5094463;28;20048;-77
2021/05/12 09:28:40;;;;;;;1.55;0.80;;;18.20;71.00;;;;;;5102895;28;20042;-77
2021/05/12 09:31:12;;;;;;;2.25;0.90;;;18.10;71.00;;;;;;5097192;28;20094;-78
2021/05/12 09:33:42;;;;;;;1.05;0.70;;;18.30;71.20;;;;;;5105783;28;20044;-77
2021/05/12 09:36:09;;;;;;;1.63;0.73;;;18.40;70.80;;;;;;5101048;28;20097;-78
2021/05/12 09:38:37;;;;;;;1.85;0.75;;;18.40;70.30;;;;;;5096546;28;20119;-78
2021/05/12 09:41:07;;;;;;;1.08;0.70;;;18.40;70.30;;;;;;5095967;28;20044;-77
2021/05/12 09:43:34;;;;;;;1.70;0.50;;;18.50;70.60;;;;;;5078363;28;20452;-77
2021/05/12 09:46:31;;;;;;;0.73;0.60;;;18.50;70.60;;;;;;5095656;28;20041;-78
2021/05/12 09:49:14;;;;;;;1.60;0.50;;;18.60;70.30;;;;;;5094845;28;20040;-78
2021/05/12 09:51:44;;;;;;;1.55;0.65;;;18.60;70.10;;;;;;5078922;28;20135;-76
2021/05/12 09:54:18;;;;;;;1.63;0.60;;;18.80;70.10;;;;;;5099549;28;20067;-78
2021/05/12 09:56:48;;;;;;;1.58;0.52;;;18.80;69.90;;;;;;5099828;28;20064;-76
2021/05/12 09:59:32;;;;;;;0.80;0.50;;;18.80;69.80;;;;;;5096463;28;20051;-75
2021/05/12 10:01:59;;;;;;;1.92;0.70;;;18.80;69.80;;;;;;5096105;28;20040;-76
2021/05/12 10:04:32;;;;;;;1.02;0.60;;;18.70;70.00;;;;;;5097372;28;20048;-76
2021/05/12 10:07:01;;;;;;;1.20;0.50;;;18.50;70.00;;;;;;5096896;28;20388;-75
2021/05/12 10:09:29;;;;;;;1.30;0.50;;;18.40;70.40;;;;;;5064226;28;20036;-75
2021/05/12 10:12:07;;;;;;;2.17;0.80;;;18.50;70.40;;;;;;5097693;28;20135;-76
2021/05/12 10:14:35;;;;;;;1.23;0.50;;;18.50;69.70;;;;;;5083841;28;20068;-77
2021/05/12 10:17:02;;;;;;;0.55;0.47;;;18.30;70.00;;;;;;5063706;28;20130;-76
2021/05/12 10:19:28;;;;;;;1.05;0.47;;;18.10;70.30;;;;;;5044873;28;20044;-76
2021/05/12 10:21:54;;;;;;;2.67;0.50;;;18.00;70.50;;;;;;5093141;28;20090;-77
2021/05/12 10:24:20;;;;;;;1.45;0.60;;;18.00;70.30;;;;;;5073901;28;20037;-76
2021/05/12 10:26:46;;;;;;;1.73;0.52;;;18.10;70.20;;;;;;5099071;28;20047;-77
2021/05/12 10:29:15;;;;;;;1.23;0.60;;;18.30;69.70;;;;;;5079537;28;20036;-76
2021/05/12 10:31:41;;;;;;;1.27;0.52;;;18.50;69.00;;;;;;5078458;28;20051;-75
2021/05/12 10:34:07;;;;;;;0.93;0.30;;;18.60;68.20;;;;;;5095736;28;20044;-75
2021/05/12 10:36:33;;;;;;;2.03;0.50;;;18.70;68.10;;;;;;5095633;28;20396;-77
2021/05/12 10:39:03;;;;;;;0.77;0.45;;;18.80;67.80;;;;;;5095492;28;20048;-75
2021/05/12 10:41:47;;;;;;;0.50;0.30;;;18.90;67.40;;;;;;5094720;28;20078;-75
2021/05/12 10:44:19;;;;;;;1.25;0.60;;;19.10;66.90;;;;;;5094277;28;20055;-74
2021/05/12 10:46:58;;;;;;;2.15;0.80;;;19.20;66.70;;;;;;5093963;28;20109;-76
2021/05/12 10:49:25;;;;;;;1.33;0.60;;;19.10;66.10;;;;;;5094872;28;20067;-75
2021/05/12 10:51:53;;;;;;;0.90;0.40;;;19.10;66.10;;;;;;5074267;28;20067;-75
2021/05/12 10:54:39;;;;;;;0.70;0.30;;;19.10;66.20;;;;;;5095050;28;20040;-76
2021/05/12 10:57:06;;;;;;;1.45;0.50;;;19.30;66.20;;;;;;5095179;28;20112;-76
2021/05/12 10:59:32;;;;;;;0.93;0.40;;;19.30;65.70;;;;;;5075958;28;20123;-76
2021/05/12 11:01:58;;;;;;;1.30;0.40;;;19.10;65.80;;;;;;5094558;28;20071;-76
2021/05/12 11:04:25;;;;;;;0.98;0.60;;;19.00;66.00;;;;;;5094909;28;20063;-76
2021/05/12 11:06:56;;;;;;;2.03;0.60;;;19.00;66.30;;;;;;5077153;28;20047;-76
2021/05/12 11:09:38;;;;;;;1.95;0.60;;;19.20;65.90;;;;;;5096007;28;20044;-75
2021/05/12 11:12:09;;;;;;;0.65;0.40;;;19.30;65.20;;;;;;5094881;28;20145;-76
2021/05/12 11:14:37;;;;;;;1.17;0.32;;;19.50;64.90;;;;;;5098150;28;20040;-76
2021/05/12 11:17:18;;;;;;;1.40;0.60;;;19.60;64.60;;;;;;5107258;28;20043;-76
2021/05/12 11:19:52;;;;;;;1.13;0.50;;;19.70;64.20;;;;;;5097552;28;20036;-76
2021/05/12 11:22:47;;;;;;;0.88;0.50;;;19.70;64.30;;;;;;5064535;28;20036;-75
2021/05/12 11:25:21;;;;;;;0.65;0.43;;;19.70;63.90;;;;;;5101888;28;20112;-76
2021/05/12 11:28:18;;;;;;;1.35;0.60;;;19.50;63.90;;;;;;5103774;28;20034;-76
2021/05/12 11:33:35;;;;;;;0.70;0.40;;;19.50;63.90;;;;;;5078671;28;20055;-74
2021/05/12 11:36:07;;;;;;;0.75;0.43;;;19.40;64.00;;;;;;5079326;28;20143;-75
2021/05/12 11:38:33;;;;;;;1.10;0.47;;;19.60;63.70;;;;;;5074664;28;20110;-75
2021/05/12 11:41:02;;;;;;;4.10;0.73;;;19.60;63.50;;;;;;5094560;28;20498;-74
2021/05/12 11:43:42;;;;;;;1.35;0.55;;;19.60;63.30;;;;;;5096942;28;20507;-75
2021/05/12 11:46:13;;;;;;;1.73;0.68;;;19.60;62.90;;;;;;5095639;28;20469;-75
2021/05/12 11:48:40;;;;;;;;;;;19.60;63.00;;;;;;5076245;28;20181;-74
2021/05/12 11:51:06;;;;;;;2.13;0.40;;;19.60;63.00;;;;;;5077076;28;19945;-75
2021/05/12 11:53:35;;;;;;;0.80;0.40;;;19.60;63.00;;;;;;5078554;28;20508;-76
2021/05/12 11:56:01;;;;;;;0.70;0.43;;;19.60;62.70;;;;;;5103120;28;20055;-76
2021/05/12 11:58:27;;;;;;;1.00;0.40;;;19.60;62.80;;;;;;5107132;28;20062;-76
2021/05/12 12:00:55;;;;;;;0.57;0.57;;;19.60;62.80;;;;;;5111292;28;20023;-77
2021/05/12 12:03:25;;;;;;;0.82;0.40;;;19.50;62.70;;;;;;5086127;28;20081;-76
2021/05/12 12:06:05;;;;;;;1.17;0.57;;;19.50;62.90;;;;;;5102057;28;20043;-77
2021/05/12 12:08:32;;;;;;;0.90;0.50;;;19.50;62.50;;;;;;5093362;28;20047;-78
2021/05/12 12:11:08;;;;;;;0.88;0.47;;;19.50;62.50;;;;;;5103584;28;20040;-78
2021/05/12 12:13:35;;;;;;;1.17;0.50;;;19.50;62.50;;;;;;5102428;28;20043;-78
2021/05/12 12:16:01;;;;;;;1.42;0.50;;;19.50;62.40;;;;;;5075764;28;20037;-78
2021/05/12 12:18:31;;;;;;;2.00;0.55;;;19.40;62.20;;;;;;5090492;28;20032;-77
2021/05/12 12:20:57;;;;;;;1.10;0.57;;;19.30;62.50;;;;;;5114551;28;20482;-78
2021/05/12 12:23:28;;;;;;;1.08;0.40;;;19.10;62.50;;;;;;5102345;28;20040;-79
2021/05/12 12:26:13;;;;;;;0.50;0.50;;;19.10;62.70;;;;;;5063662;28;20051;-79
2021/05/12 12:28:40;;;;;;;0.73;0.50;;;19.10;62.30;;;;;;5100042;28;20097;-81
2021/05/12 12:31:07;;;;;;;0.80;0.50;;;19.30;62.20;;;;;;5080848;28;20048;-79
2021/05/12 12:33:33;;;;;;;0.75;0.50;;;19.40;61.90;;;;;;5064417;28;20089;-78
2021/05/12 12:36:02;;;;;;;1.05;0.50;;;19.50;61.70;;;;;;5066369;28;20505;-80
2021/05/12 12:38:30;;;;;;;0.40;0.40;;;19.60;61.30;;;;;;5077227;28;20190;-79
2021/05/12 12:40:56;;;;;;;1.58;0.50;;;19.70;61.20;;;;;;5096493;28;20078;-79
2021/05/12 12:43:22;;;;;;;1.58;0.60;;;19.70;60.80;;;;;;5079211;28;20046;-79
2021/05/12 12:45:47;;;;;;;2.45;0.75;;;19.50;60.90;;;;;;5098772;28;20040;-78
2021/05/12 12:48:13;;;;;;;1.23;0.60;;;19.40;61.30;;;;;;5062959;28;20128;-75
2021/05/12 12:50:41;;;;;;;0.57;0.40;;;19.40;61.30;;;;;;5078608;28;20405;-75
2021/05/12 12:53:10;;;;;;;0.90;0.47;;;19.30;61.50;;;;;;5075366;28;20123;-75